createdAt,value
2022-10-04T00:02:25.138Z,98836.84
2022-10-04T00:05:03.613Z,98830.78
2022-10-04T00:07:35.085Z,98830.75
2022-10-04T00:10:09.309Z,98829.88
2022-10-04T00:12:40.408Z,98835.81
2022-10-04T00:15:21.617Z,98816.19
2022-10-04T00:18:08.218Z,98825.56
2022-10-04T00:21:01.656Z,98812.75
2022-10-04T00:23:45.946Z,98817.09
2022-10-04T00:27:11.576Z,98818.75
2022-10-04T00:29:42.861Z,98831.47
2022-10-04T00:32:29.997Z,98834.03
2022-10-04T00:35:01.480Z,98831.41
2022-10-04T00:37:50.126Z,98824.63
2022-10-04T00:40:21.759Z,98810.16
2022-10-04T00:42:58.049Z,98810.16
2022-10-04T00:45:38.755Z,98804.19
2022-10-04T00:48:35.696Z,98799.03
2022-10-04T00:51:12.831Z,98790.47
2022-10-04T00:53:52.059Z,98803.25
2022-10-04T00:56:27.589Z,98814.25
2022-10-04T00:59:27.483Z,98793.88
2022-10-04T01:02:00.651Z,98800.63
2022-10-04T01:04:38.178Z,98795.47
2022-10-04T01:07:11.121Z,98803.16
2022-10-04T01:09:48.431Z,98809.16
2022-10-04T01:12:29.548Z,98804.88
2022-10-04T01:15:07.805Z,98806.56
2022-10-04T01:17:36.176Z,98791.19
2022-10-04T01:20:05.543Z,98793.81
2022-10-04T01:22:43.676Z,98792.94
2022-10-04T01:25:12.374Z,98792.06
2022-10-04T01:27:45.059Z,98797.16
2022-10-04T01:30:17.661Z,98800.53
2022-10-04T01:32:46.415Z,98794.56
2022-10-04T01:35:17.337Z,98786.81
2022-10-04T01:37:47.670Z,98797.88
2022-10-04T01:40:16.615Z,98796.19
2022-10-04T01:42:51.155Z,98790.19
2022-10-04T01:45:26.146Z,98795.38
2022-10-04T01:47:58.698Z,98793.63
2022-10-04T01:50:32.783Z,98800.47
2022-10-04T01:53:08.518Z,98804.81
2022-10-04T01:55:41.084Z,98799.66
2022-10-04T01:58:16.287Z,98794.59
2022-10-04T02:00:51.617Z,98785.16
2022-10-04T02:03:24.338Z,98791.09
2022-10-04T02:05:58.406Z,98792.66
2022-10-04T02:08:30.626Z,98793.50
2022-10-04T02:11:00.751Z,98780.69
2022-10-04T02:13:34.984Z,98776.53
2022-10-04T02:16:06.157Z,98777.28
2022-10-04T02:18:35.443Z,98783.19
2022-10-04T02:21:07.294Z,98759.28
2022-10-04T02:23:40.474Z,98764.41
2022-10-04T02:26:10.294Z,98779.72
2022-10-04T02:28:40.252Z,98766.06
2022-10-04T02:31:28.174Z,98754.94
2022-10-04T02:34:00.021Z,98788.22
2022-10-04T02:36:31.005Z,98773.72
2022-10-04T02:39:06.237Z,98766.84
2022-10-04T02:41:39.037Z,98771.13
2022-10-04T02:44:17.536Z,98771.13
2022-10-04T02:46:54.529Z,98771.09
2022-10-04T02:49:32.283Z,98742.09
2022-10-04T02:52:05.590Z,98740.41
2022-10-04T02:54:41.353Z,98751.50
2022-10-04T02:57:16.857Z,98735.41
2022-10-04T02:59:45.763Z,98731.88
2022-10-04T03:02:29.940Z,98740.44
2022-10-04T03:05:05.145Z,98745.53
2022-10-04T03:07:34.989Z,98754.03
2022-10-04T03:10:11.356Z,98759.06
2022-10-04T03:12:40.172Z,98767.53
2022-10-04T03:15:11.257Z,98757.34
2022-10-04T03:17:42.549Z,98759.09
2022-10-04T03:20:14.726Z,98759.06
2022-10-04T03:22:47.144Z,98745.47
2022-10-04T03:25:22.972Z,98760.88
2022-10-04T03:27:54.105Z,98772.78
2022-10-04T03:30:23.156Z,98773.72
2022-10-04T03:32:53.385Z,98777.09
2022-10-04T03:35:30.112Z,98772.00
2022-10-04T03:37:59.574Z,98776.22
2022-10-04T03:40:34.395Z,98774.53
2022-10-04T03:43:05.187Z,98782.97
2022-10-04T03:45:35.864Z,98775.34
2022-10-04T03:48:09.271Z,98763.41
2022-10-04T03:50:45.156Z,98753.94
2022-10-04T03:53:20.791Z,98760.09
2022-10-04T03:55:50.645Z,98760.91
2022-10-04T03:58:20.099Z,98758.41
2022-10-04T04:01:03.039Z,98755.03
2022-10-04T04:03:36.009Z,98742.28
2022-10-04T04:06:15.151Z,98751.56
2022-10-04T04:08:46.829Z,98757.47
2022-10-04T04:11:24.101Z,98755.00
2022-10-04T04:14:03.618Z,98750.75
2022-10-04T04:16:32.917Z,98749.94
2022-10-04T04:19:04.797Z,98733.88
2022-10-04T04:21:34.955Z,98740.00
2022-10-04T04:24:10.468Z,98750.19
2022-10-04T04:26:51.893Z,98741.88
2022-10-04T04:29:26.662Z,98728.19
2022-10-04T04:32:01.196Z,98723.97
2022-10-04T04:34:32.346Z,98715.47
2022-10-04T04:37:02.374Z,98710.34
2022-10-04T04:39:41.583Z,98719.84
2022-10-04T04:42:19.187Z,98730.00
2022-10-04T04:44:51.038Z,98718.97
2022-10-04T04:47:29.763Z,98716.38
2022-10-04T04:50:05.520Z,98719.88
2022-10-04T04:52:35.877Z,98724.97
2022-10-04T04:55:06.282Z,98750.59
2022-10-04T04:57:37.053Z,98747.97
2022-10-04T05:00:06.053Z,98746.22
2022-10-04T05:02:37.327Z,98760.53
2022-10-04T05:05:19.447Z,98758.88
2022-10-04T05:07:50.610Z,98758.81
2022-10-04T05:10:33.420Z,98752.88
2022-10-04T05:13:04.770Z,98744.41
2022-10-04T05:15:36.547Z,98747.94
2022-10-04T05:18:18.214Z,98750.47
2022-10-04T05:20:52.028Z,98744.50
2022-10-04T05:23:21.129Z,98741.13
2022-10-04T05:25:51.967Z,98744.59
2022-10-04T05:28:22.348Z,98736.03
2022-10-04T05:31:06.241Z,98719.81
2022-10-04T05:33:41.679Z,98720.78
2022-10-04T05:36:34.318Z,98744.56
2022-10-04T05:39:09.748Z,98745.41
2022-10-04T05:41:41.513Z,98738.66
2022-10-04T05:44:28.122Z,98735.31
2022-10-04T05:47:01.300Z,98739.56
2022-10-04T05:49:36.563Z,98741.28
2022-10-04T05:52:15.674Z,98734.47
2022-10-04T05:54:43.940Z,98751.56
2022-10-04T05:57:39.853Z,98756.72
2022-10-04T06:00:17.567Z,98742.28
2022-10-04T06:03:25.371Z,98735.53
2022-10-04T06:05:57.878Z,98738.97
2022-10-04T06:08:37.775Z,98738.09
2022-10-04T06:11:14.347Z,98727.91
2022-10-04T06:14:09.726Z,98727.13
2022-10-04T06:16:58.232Z,98731.38
2022-10-04T06:20:01.571Z,98730.59
2022-10-04T06:22:30.040Z,98747.66
2022-10-04T06:25:03.560Z,98747.66
2022-10-04T06:27:37.956Z,98750.22
2022-10-04T06:30:09.311Z,98737.44
2022-10-04T06:33:10.841Z,98767.28
2022-10-04T06:36:10.549Z,98768.13
2022-10-04T06:39:05.635Z,98769.84
2022-10-04T06:41:59.761Z,98769.81
2022-10-04T06:44:46.160Z,98771.56
2022-10-04T06:47:30.785Z,98771.56
2022-10-04T06:50:15.313Z,98774.09
2022-10-04T06:52:56.911Z,98768.13
2022-10-04T06:55:49.228Z,98777.50
2022-10-04T06:58:47.646Z,98775.84
2022-10-04T07:01:29.762Z,98763.91
2022-10-04T07:04:07.691Z,98768.16
2022-10-04T07:06:42.349Z,98769.84
2022-10-04T07:09:22.175Z,98771.53
2022-10-04T07:11:56.698Z,98764.69
2022-10-04T07:14:31.673Z,98761.16
2022-10-04T07:17:05.432Z,98750.88
2022-10-04T07:19:38.720Z,98750.75
2022-10-04T07:22:18.677Z,98764.41
2022-10-04T07:25:07.321Z,98764.31
2022-10-04T07:27:43.707Z,98767.69
2022-10-04T07:30:16.451Z,98764.13
2022-10-04T07:32:48.509Z,98773.38
2022-10-04T07:35:34.206Z,98766.50
2022-10-04T07:38:24.275Z,98765.34
2022-10-04T07:41:10.033Z,98767.00
2022-10-04T07:43:49.850Z,98773.78
2022-10-04T07:46:25.412Z,98772.00
2022-10-04T07:48:54.670Z,98770.34
2022-10-04T07:51:32.860Z,98772.78
2022-10-04T07:54:06.511Z,98767.59
2022-10-04T07:56:43.243Z,98778.41
2022-10-04T07:59:30.130Z,98785.91
2022-10-04T08:02:15.339Z,98774.88
2022-10-04T08:04:51.904Z,98760.31
2022-10-04T08:07:27.720Z,98761.22
2022-10-04T08:10:08.405Z,98786.75
2022-10-04T08:12:49.165Z,98799.72
2022-10-04T08:15:35.041Z,98793.72
2022-10-04T08:18:23.398Z,98801.97
2022-10-04T08:20:58.503Z,98788.09
2022-10-04T08:23:59.094Z,98784.56
2022-10-04T08:26:54.240Z,98769.69
2022-10-04T08:29:48.213Z,98765.53
2022-10-04T08:32:49.233Z,98755.84
2022-10-04T08:35:38.119Z,98763.47
2022-10-04T08:38:24.066Z,98775.13
2022-10-04T08:41:30.006Z,98764.69
2022-10-04T08:44:44.242Z,98780.09
2022-10-04T08:47:41.279Z,98792.06
2022-10-04T08:50:44.919Z,98805.72
2022-10-04T08:53:55.103Z,98800.28
2022-10-04T08:56:51.424Z,98785.97
2022-10-04T08:59:38.012Z,98790.94
2022-10-04T09:02:33.702Z,98787.38
2022-10-04T09:05:38.331Z,98789.72
2022-10-04T09:08:42.665Z,98796.19
2022-10-04T09:12:00.853Z,98780.72
2022-10-04T09:14:50.934Z,98782.50
2022-10-04T09:17:24.014Z,98789.22
2022-10-04T09:20:09.280Z,98784.47
2022-10-04T09:22:57.534Z,98789.50
2022-10-04T09:25:50.064Z,98786.84
2022-10-04T09:28:47.549Z,98790.16
2022-10-04T09:31:45.882Z,98784.41
2022-10-04T09:34:36.397Z,98780.09
2022-10-04T09:37:31.363Z,98780.91
2022-10-04T09:40:48.628Z,98779.19
2022-10-04T09:43:52.663Z,98769.34
2022-10-04T09:46:42.017Z,98760.94
2022-10-04T09:49:24.212Z,98762.56
2022-10-04T09:52:23.323Z,98754.44
2022-10-04T09:55:17.532Z,98760.13
2022-10-04T09:58:15.935Z,98756.50
2022-10-04T10:00:52.376Z,98761.13
2022-10-04T10:04:10.756Z,98757.59
2022-10-04T10:07:11.856Z,98760.97
2022-10-04T10:10:04.497Z,98766.81
2022-10-04T10:13:14.513Z,98760.22
2022-10-04T10:15:59.779Z,98760.75
2022-10-04T10:18:41.072Z,98759.06
2022-10-04T10:21:29.183Z,98746.81
2022-10-04T10:24:22.840Z,98753.97
2022-10-04T10:27:15.744Z,98751.41
2022-10-04T10:30:15.997Z,98745.31
2022-10-04T10:33:13.858Z,98751.22
2022-10-04T10:36:21.768Z,98751.94
2022-10-04T10:39:02.094Z,98745.91
2022-10-04T10:41:47.975Z,98747.34
2022-10-04T10:44:42.667Z,98741.25
2022-10-04T10:47:22.040Z,98734.66
2022-10-04T10:50:08.696Z,98735.03
2022-10-04T10:53:00.240Z,98744.88
2022-10-04T10:55:44.883Z,98750.63
2022-10-04T10:58:45.422Z,98730.44
2022-10-04T11:01:49.378Z,98740.69
2022-10-04T11:04:54.396Z,98745.47
2022-10-04T11:07:55.836Z,98736.38
2022-10-04T11:10:56.879Z,98732.50
2022-10-04T11:13:48.938Z,98727.06
2022-10-04T11:16:47.919Z,98725.22
2022-10-04T11:19:47.039Z,98721.63
2022-10-04T11:22:45.209Z,98727.59
2022-10-04T11:25:37.650Z,98718.75
2022-10-04T11:28:14.745Z,98704.00
2022-10-04T11:31:24.401Z,98698.41
2022-10-04T11:34:27.756Z,98696.19
2022-10-04T11:37:07.776Z,98696.31
2022-10-04T11:39:56.249Z,98681.00
2022-10-04T11:42:45.370Z,98692.34
2022-10-04T11:45:38.778Z,98689.53
2022-10-04T11:48:23.901Z,98666.75
2022-10-04T11:51:18.923Z,98684.75
2022-10-04T11:54:28.405Z,98688.44
2022-10-04T11:57:28.458Z,98677.03
2022-10-04T12:00:10.711Z,98684.09
2022-10-04T12:02:55.228Z,98682.75
2022-10-04T12:05:51.112Z,98688.78
2022-10-04T12:08:32.973Z,98680.03
2022-10-04T12:12:00.535Z,98673.75
2022-10-04T12:14:44.068Z,98673.94
2022-10-04T12:17:52.671Z,98687.47
2022-10-04T12:20:43.895Z,98684.94
2022-10-04T12:23:37.458Z,98675.41
2022-10-04T12:26:40.840Z,98684.50
2022-10-04T12:29:33.195Z,98674.69
2022-10-04T12:32:08.060Z,98675.31
2022-10-04T12:34:48.733Z,98668.22
2022-10-04T12:37:27.626Z,98662.44
2022-10-04T12:40:14.789Z,98652.41
2022-10-04T12:42:53.573Z,98663.41
2022-10-04T12:45:48.346Z,98663.97
2022-10-04T12:48:29.159Z,98656.22
2022-10-04T12:51:21.898Z,98654.84
2022-10-04T12:53:58.826Z,98657.34
2022-10-04T12:56:48.604Z,98650.09
2022-10-04T12:59:39.133Z,98655.09
2022-10-04T13:02:21.429Z,98643.72
2022-10-04T13:04:55.248Z,98655.66
2022-10-04T13:07:45.978Z,98644.63
2022-10-04T13:10:29.374Z,98660.53
2022-10-04T13:13:29.619Z,98654.16
2022-10-04T13:19:09.523Z,98650.78
2022-10-04T13:22:03.387Z,98653.13
2022-10-04T13:24:56.327Z,98657.91
2022-10-04T13:27:33.010Z,98653.63
2022-10-04T13:30:07.778Z,98655.47
2022-10-04T13:32:46.057Z,98649.66
2022-10-04T13:35:22.955Z,98645.66
2022-10-04T13:38:08.278Z,98647.59
2022-10-04T13:41:00.816Z,98642.63
2022-10-04T13:43:57.755Z,98642.22
2022-10-04T13:46:34.025Z,98639.72
2022-10-04T13:49:22.201Z,98646.97
2022-10-04T13:52:24.198Z,98647.19
2022-10-04T13:55:21.773Z,98653.38
2022-10-04T13:57:56.390Z,98645.91
2022-10-04T14:00:45.385Z,98652.03
2022-10-04T14:03:31.877Z,98647.75
2022-10-04T14:06:31.418Z,98654.69
2022-10-04T14:09:40.084Z,98649.31
2022-10-04T14:12:38.703Z,98640.63
2022-10-04T14:15:44.794Z,98650.81
2022-10-04T14:18:58.667Z,98656.28
2022-10-04T14:22:00.766Z,98639.25
2022-10-04T14:25:01.781Z,98645.34
2022-10-04T14:28:02.627Z,98640.41
2022-10-04T14:30:42.327Z,98629.31
2022-10-04T14:33:47.755Z,98635.50
2022-10-04T14:36:47.194Z,98644.22
2022-10-04T14:40:00.451Z,98640.00
2022-10-04T14:42:49.403Z,98636.63
2022-10-04T14:45:30.451Z,98638.41
2022-10-04T14:48:24.734Z,98638.63
2022-10-04T14:51:13.065Z,98632.66
2022-10-04T14:53:56.294Z,98629.03
2022-10-04T14:56:44.601Z,98635.03
2022-10-04T14:59:34.700Z,98620.50
2022-10-04T15:02:38.202Z,98626.34
2022-10-04T15:05:31.889Z,98628.16
2022-10-04T15:08:39.426Z,98618.78
2022-10-04T15:11:10.631Z,98622.28
2022-10-04T15:13:52.050Z,98611.88
2022-10-04T15:16:33.998Z,98614.72
2022-10-04T15:19:11.599Z,98605.09
2022-10-04T15:21:54.049Z,98611.59
2022-10-04T15:24:47.084Z,98615.84
2022-10-04T15:27:52.353Z,98616.97
2022-10-04T15:30:47.765Z,98611.75
2022-10-04T15:33:27.812Z,98601.81
2022-10-04T15:36:19.702Z,98604.44
2022-10-04T15:38:57.302Z,98605.50
2022-10-04T15:41:38.808Z,98589.53
2022-10-04T15:44:34.921Z,98585.22
2022-10-04T15:47:17.239Z,98584.47
2022-10-04T15:50:04.895Z,98578.84
2022-10-04T15:52:50.861Z,98574.78
2022-10-04T15:55:23.114Z,98563.94
2022-10-04T15:58:27.765Z,98586.31
2022-10-04T16:01:23.485Z,98587.47
2022-10-04T16:04:16.429Z,98590.16
2022-10-04T16:06:51.243Z,98587.88
2022-10-04T16:09:31.813Z,98585.53
2022-10-04T16:12:08.475Z,98583.94
2022-10-04T16:15:03.739Z,98603.00
2022-10-04T16:18:06.019Z,98597.56
2022-10-04T16:21:16.269Z,98596.22
2022-10-04T16:23:45.456Z,98603.53
2022-10-04T16:26:16.924Z,98602.13
2022-10-04T16:29:07.308Z,98589.47
2022-10-04T16:31:56.978Z,98601.78
2022-10-04T16:34:41.865Z,98609.69
2022-10-04T16:37:31.395Z,98604.06
2022-10-04T16:40:06.131Z,98603.50
2022-10-04T16:42:51.425Z,98598.75
2022-10-04T16:45:38.882Z,98610.22
2022-10-04T16:48:31.813Z,98602.75
2022-10-04T16:51:39.453Z,98596.31
2022-10-04T16:54:34.089Z,98614.59
2022-10-04T16:57:16.621Z,98612.28
2022-10-04T16:59:48.358Z,98598.03
2022-10-04T17:03:01.581Z,98612.78
2022-10-04T17:05:55.160Z,98617.25
2022-10-04T17:08:42.117Z,98620.03
2022-10-04T17:11:33.971Z,98616.91
2022-10-04T17:14:07.542Z,98601.00
2022-10-04T17:16:39.861Z,98622.16
2022-10-04T17:19:35.040Z,98619.81
2022-10-04T17:22:21.149Z,98610.47
2022-10-04T17:25:04.960Z,98612.22
2022-10-04T17:27:47.792Z,98615.47
2022-10-04T17:30:22.033Z,98607.16
2022-10-04T17:33:24.876Z,98632.84
2022-10-04T17:36:02.350Z,98639.03
2022-10-04T17:38:43.425Z,98645.13
2022-10-04T17:41:19.479Z,98640.97
2022-10-04T17:44:12.218Z,98637.53
2022-10-04T17:46:48.489Z,98633.13
2022-10-04T17:49:42.374Z,98624.53
2022-10-04T17:52:50.529Z,98642.59
2022-10-04T17:55:29.679Z,98635.06
2022-10-04T17:58:07.662Z,98616.47
2022-10-04T18:00:57.123Z,98630.25
2022-10-04T18:03:33.903Z,98637.13
2022-10-04T18:06:13.158Z,98618.47
2022-10-04T18:08:48.308Z,98617.63
2022-10-04T18:11:25.342Z,98637.84
2022-10-04T18:14:03.383Z,98624.09
2022-10-04T18:16:34.491Z,98624.97
2022-10-04T18:19:33.511Z,98624.41
2022-10-04T18:22:13.524Z,98618.47
2022-10-04T18:24:42.558Z,98603.25
2022-10-04T18:27:23.603Z,98610.94
2022-10-04T18:30:04.663Z,98616.09
2022-10-04T18:32:37.184Z,98613.53
2022-10-04T18:35:25.522Z,98609.31
2022-10-04T18:37:56.013Z,98612.72
2022-10-04T18:40:26.242Z,98622.19
2022-10-04T18:43:02.074Z,98613.63
2022-10-04T18:45:32.741Z,98618.00
2022-10-04T18:48:03.054Z,98610.41
2022-10-04T18:50:36.779Z,98641.78
2022-10-04T18:53:32.781Z,98646.22
2022-10-04T18:56:03.937Z,98641.00
2022-10-04T18:59:08.162Z,98644.63
2022-10-04T19:02:03.826Z,98643.91
2022-10-04T19:04:48.944Z,98643.19
2022-10-04T19:07:19.748Z,98644.88
2022-10-04T19:10:10.224Z,98645.88
2022-10-04T19:13:06.772Z,98660.59
2022-10-04T19:16:10.382Z,98669.16
2022-10-04T19:19:04.313Z,98660.66
2022-10-04T19:21:45.081Z,98659.00
2022-10-04T19:24:56.369Z,98640.31
2022-10-04T19:27:29.310Z,98647.16
2022-10-04T19:30:11.917Z,98650.63
2022-10-04T19:32:54.026Z,98634.44
2022-10-04T19:35:41.278Z,98662.66
2022-10-04T19:38:37.566Z,98655.91
2022-10-04T19:41:13.401Z,98665.31
2022-10-04T19:43:52.657Z,98665.31
2022-10-04T19:46:35.367Z,98662.00
2022-10-04T19:49:04.758Z,98656.94
2022-10-04T19:51:39.996Z,98674.00
2022-10-04T19:54:15.651Z,98669.84
2022-10-04T19:56:49.113Z,98670.69
2022-10-04T19:59:22.197Z,98661.34
2022-10-04T20:01:53.078Z,98649.44
2022-10-04T20:04:38.637Z,98664.75
2022-10-04T20:07:20.633Z,98661.38
2022-10-04T20:09:55.768Z,98666.50
2022-10-04T20:12:36.548Z,98667.38
2022-10-04T20:15:27.414Z,98662.31
2022-10-04T20:17:58.288Z,98670.84
2022-10-04T20:21:06.667Z,98668.22
2022-10-04T20:23:56.712Z,98676.81
2022-10-04T20:26:56.904Z,98666.63
2022-10-04T20:30:07.912Z,98681.94
2022-10-04T20:32:59.583Z,98691.44
2022-10-04T20:36:03.970Z,98689.78
2022-10-04T20:39:03.014Z,98692.41
2022-10-04T20:42:04.661Z,98692.41
2022-10-04T20:44:54.447Z,98689.84
2022-10-04T20:47:33.045Z,98689.78
2022-10-04T20:50:02.554Z,98697.53
2022-10-04T20:52:33.297Z,98695.94
2022-10-04T20:55:04.037Z,98699.28
2022-10-04T20:57:35.229Z,98709.53
2022-10-04T21:00:06.627Z,98702.59
2022-10-04T21:02:35.400Z,98706.91
2022-10-04T21:05:14.331Z,98705.22
2022-10-04T21:07:42.787Z,98695.06
2022-10-04T21:10:21.521Z,98713.88
2022-10-04T21:12:50.550Z,98720.72
2022-10-04T21:15:24.154Z,98718.19
2022-10-04T21:18:04.306Z,98706.34
2022-10-04T21:20:47.421Z,98731.09
2022-10-04T21:23:23.890Z,98724.31
2022-10-04T21:26:14.588Z,98724.28
2022-10-04T21:28:43.614Z,98726.03
2022-10-04T21:31:11.966Z,98717.53
2022-10-04T21:33:40.445Z,98714.03
2022-10-04T21:36:09.350Z,98723.41
2022-10-04T21:38:38.748Z,98723.31
2022-10-04T21:41:09.708Z,98704.59
2022-10-04T21:43:39.012Z,98723.34
2022-10-04T21:46:08.187Z,98718.22
2022-10-04T21:48:37.435Z,98731.91
2022-10-04T21:51:08.150Z,98718.25
2022-10-04T21:53:37.038Z,98706.41
2022-10-04T21:56:07.774Z,98720.88
2022-10-04T21:58:39.546Z,98718.38
2022-10-04T22:01:08.354Z,98726.06
2022-10-04T22:03:37.327Z,98718.44
2022-10-04T22:06:06.323Z,98720.09
2022-10-04T22:08:34.803Z,98709.91
2022-10-04T22:11:03.818Z,98717.59
2022-10-04T22:13:32.399Z,98720.19
2022-10-04T22:16:04.836Z,98705.72
2022-10-04T22:18:35.292Z,98711.66
2022-10-04T22:21:04.398Z,98705.75
2022-10-04T22:23:40.456Z,98721.91
2022-10-04T22:26:13.526Z,98714.22
2022-10-04T22:28:45.633Z,98715.06
2022-10-04T22:31:18.471Z,98709.97
2022-10-04T22:33:48.762Z,98714.25
2022-10-04T22:36:21.651Z,98698.91
2022-10-04T22:38:59.770Z,98721.91
2022-10-04T22:41:36.499Z,98717.66
2022-10-04T22:44:14.395Z,98707.44
2022-10-04T22:46:47.249Z,98696.41
2022-10-04T22:49:19.028Z,98708.34
2022-10-04T22:51:50.427Z,98706.63
2022-10-04T22:54:20.934Z,98691.25
2022-10-04T22:56:50.058Z,98682.78
2022-10-04T22:59:21.056Z,98688.72
2022-10-04T23:01:52.837Z,98692.16
2022-10-04T23:04:24.691Z,98686.19
2022-10-04T23:06:54.290Z,98679.38
2022-10-04T23:09:22.922Z,98676.81
2022-10-04T23:11:51.806Z,98666.59
2022-10-04T23:14:20.489Z,98649.56
2022-10-04T23:16:49.360Z,98663.19
2022-10-04T23:19:20.533Z,98660.66
2022-10-04T23:21:51.537Z,98647.03
2022-10-04T23:24:21.681Z,98652.19
2022-10-04T23:26:54.585Z,98649.63
2022-10-04T23:29:26.147Z,98659.03
2022-10-04T23:31:55.381Z,98663.25
2022-10-04T23:34:30.471Z,98662.44
2022-10-04T23:36:59.554Z,98660.72
2022-10-04T23:39:31.605Z,98647.97
2022-10-04T23:42:00.815Z,98638.59
2022-10-04T23:44:36.578Z,98641.13
2022-10-04T23:47:07.189Z,98623.25
2022-10-04T23:49:38.692Z,98645.41
2022-10-04T23:52:16.981Z,98632.63
2022-10-04T23:54:45.920Z,98630.91
2022-10-04T23:57:21.674Z,98616.44
2022-10-04T23:59:50.349Z,98615.56
